sensor_id;sensor_type;location;lat;lon;timestamp;pressure;altitude;pressure_sealevel;temperature;humidity
35551;BME280;21655;46.056;13.616;2022-11-18T00:02:04;98892.00;;;11.20;100.00
35551;BME280;21655;46.056;13.616;2022-11-18T00:04:29;98894.13;;;11.24;100.00
35551;BME280;21655;46.056;13.616;2022-11-18T00:06:55;98888.41;;;11.19;100.00
35551;BME280;21655;46.056;13.616;2022-11-18T00:09:20;98874.13;;;11.16;100.00
35551;BME280;21655;46.056;13.616;2022-11-18T00:11:46;98867.50;;;11.17;100.00
35551;BME280;21655;46.056;13.616;2022-11-18T00:14:29;98854.25;;;11.19;100.00
35551;BME280;21655;46.056;13.616;2022-11-18T00:17:01;98859.16;;;11.23;100.00
35551;BME280;21655;46.056;13.616;2022-11-18T00:19:31;98843.38;;;11.24;100.00
35551;BME280;21655;46.056;13.616;2022-11-18T00:21:57;98847.38;;;11.28;100.00
35551;BME280;21655;46.056;13.616;2022-11-18T00:24:23;98849.53;;;11.26;100.00
35551;BME280;21655;46.056;13.616;2022-11-18T00:26:49;98845.69;;;11.27;100.00
35551;BME280;21655;46.056;13.616;2022-11-18T00:29:15;98831.19;;;11.25;100.00
35551;BME280;21655;46.056;13.616;2022-11-18T00:31:41;98820.31;;;11.23;100.00
35551;BME280;21655;46.056;13.616;2022-11-18T00:34:09;98815.00;;;11.22;100.00
35551;BME280;21655;46.056;13.616;2022-11-18T00:36:34;98802.63;;;11.18;100.00
35551;BME280;21655;46.056;13.616;2022-11-18T00:39:00;98797.38;;;11.04;100.00
35551;BME280;21655;46.056;13.616;2022-11-18T00:41:26;98797.38;;;11.04;100.00
35551;BME280;21655;46.056;13.616;2022-11-18T00:44:12;98799.72;;;11.00;100.00
35551;BME280;21655;46.056;13.616;2022-11-18T00:46:37;98790.34;;;11.01;100.00
35551;BME280;21655;46.056;13.616;2022-11-18T00:49:03;98816.34;;;11.07;100.00
35551;BME280;21655;46.056;13.616;2022-11-18T00:51:28;98834.06;;;11.06;100.00
35551;BME280;21655;46.056;13.616;2022-11-18T00:53:54;98858.81;;;11.07;100.00
35551;BME280;21655;46.056;13.616;2022-11-18T00:56:19;98850.03;;;11.10;100.00
35551;BME280;21655;46.056;13.616;2022-11-18T00:58:44;98847.03;;;11.12;100.00
35551;BME280;21655;46.056;13.616;2022-11-18T01:01:10;98822.72;;;11.14;100.00
35551;BME280;21655;46.056;13.616;2022-11-18T01:03:35;98807.78;;;11.15;100.00
35551;BME280;21655;46.056;13.616;2022-11-18T01:06:01;98792.88;;;11.09;100.00
35551;BME280;21655;46.056;13.616;2022-11-18T01:08:26;98786.31;;;10.97;100.00
35551;BME280;21655;46.056;13.616;2022-11-18T01:10:52;98796.41;;;10.85;100.00
35551;BME280;21655;46.056;13.616;2022-11-18T01:13:18;98786.81;;;10.81;100.00
35551;BME280;21655;46.056;13.616;2022-11-18T01:15:49;98793.44;;;10.80;100.00
35551;BME280;21655;46.056;13.616;2022-11-18T01:18:17;98793.22;;;10.88;100.00
35551;BME280;21655;46.056;13.616;2022-11-18T01:20:44;98794.50;;;10.86;100.00
35551;BME280;21655;46.056;13.616;2022-11-18T01:23:10;98811.13;;;10.86;100.00
35551;BME280;21655;46.056;13.616;2022-11-18T01:25:37;98811.31;;;10.91;100.00
35551;BME280;21655;46.056;13.616;2022-11-18T01:28:03;98809.16;;;10.93;100.00
35551;BME280;21655;46.056;13.616;2022-11-18T01:30:28;98798.06;;;10.93;100.00
35551;BME280;21655;46.056;13.616;2022-11-18T01:32:54;98794.88;;;10.96;100.00
35551;BME280;21655;46.056;13.616;2022-11-18T01:35:20;98790.34;;;11.01;100.00
35551;BME280;21655;46.056;13.616;2022-11-18T01:37:45;98791.22;;;11.02;100.00
35551;BME280;21655;46.056;13.616;2022-11-18T01:40:11;98777.31;;;11.08;100.00
35551;BME280;21655;46.056;13.616;2022-11-18T01:42:36;98769.19;;;11.07;100.00
35551;BME280;21655;46.056;13.616;2022-11-18T01:45:19;98759.63;;;11.03;100.00
35551;BME280;21655;46.056;13.616;2022-11-18T01:47:49;98759.84;;;11.01;100.00
35551;BME280;21655;46.056;13.616;2022-11-18T01:50:17;98754.53;;;11.00;100.00
35551;BME280;21655;46.056;13.616;2022-11-18T01:52:45;98751.72;;;11.06;100.00
35551;BME280;21655;46.056;13.616;2022-11-18T01:55:17;98748.72;;;11.08;100.00
35551;BME280;21655;46.056;13.616;2022-11-18T01:57:45;98743.78;;;11.10;100.00
35551;BME280;21655;46.056;13.616;2022-11-18T02:00:12;98739.09;;;11.10;100.00
35551;BME280;21655;46.056;13.616;2022-11-18T02:02:38;98725.44;;;11.09;100.00
35551;BME280;21655;46.056;13.616;2022-11-18T02:05:05;98712.44;;;11.09;100.00
35551;BME280;21655;46.056;13.616;2022-11-18T02:07:42;98709.44;;;11.11;100.00
35551;BME280;21655;46.056;13.616;2022-11-18T02:10:08;98713.91;;;11.12;100.00
35551;BME280;21655;46.056;13.616;2022-11-18T02:12:35;98711.38;;;11.10;100.00
35551;BME280;21655;46.056;13.616;2022-11-18T02:15:02;98711.53;;;11.15;100.00
35551;BME280;21655;46.056;13.616;2022-11-18T02:17:43;98706.00;;;11.15;100.00
35551;BME280;21655;46.056;13.616;2022-11-18T02:36:17;98699.66;;;11.08;100.00
35551;BME280;21655;46.056;13.616;2022-11-18T02:38:47;98692.41;;;11.07;100.00
35551;BME280;21655;46.056;13.616;2022-11-18T02:41:18;98686.63;;;11.09;100.00
35551;BME280;21655;46.056;13.616;2022-11-18T02:43:50;98685.38;;;11.05;100.00
35551;BME280;21655;46.056;13.616;2022-11-18T02:46:19;98676.38;;;11.09;100.00
35551;BME280;21655;46.056;13.616;2022-11-18T02:48:49;98677.41;;;11.15;100.00
35551;BME280;21655;46.056;13.616;2022-11-18T02:51:20;98679.50;;;11.19;100.00
35551;BME280;21655;46.056;13.616;2022-11-18T02:53:49;98668.63;;;11.18;100.00
35551;BME280;21655;46.056;13.616;2022-11-18T02:56:16;98671.16;;;11.19;100.00
35551;BME280;21655;46.056;13.616;2022-11-18T02:58:42;98662.19;;;11.23;100.00
35551;BME280;21655;46.056;13.616;2022-11-18T03:01:17;98662.41;;;11.22;100.00
35551;BME280;21655;46.056;13.616;2022-11-18T03:03:44;98660.72;;;11.21;100.00
35551;BME280;21655;46.056;13.616;2022-11-18T03:09:30;98654.88;;;11.29;100.00
35551;BME280;21655;46.056;13.616;2022-11-18T03:15:22;98637.97;;;11.37;100.00
35551;BME280;21655;46.056;13.616;2022-11-18T03:21:39;98639.47;;;11.33;100.00
35551;BME280;21655;46.056;13.616;2022-11-18T03:24:19;98639.47;;;11.33;100.00
35551;BME280;21655;46.056;13.616;2022-11-18T03:26:53;98644.81;;;11.34;100.00
35551;BME280;21655;46.056;13.616;2022-11-18T03:29:27;98647.41;;;11.29;100.00
35551;BME280;21655;46.056;13.616;2022-11-18T03:31:58;98640.78;;;11.30;100.00
35551;BME280;21655;46.056;13.616;2022-11-18T03:34:42;98644.56;;;11.36;100.00
35551;BME280;21655;46.056;13.616;2022-11-18T03:37:12;98640.09;;;11.35;100.00
35551;BME280;21655;46.056;13.616;2022-11-18T03:39:41;98642.66;;;11.36;100.00
35551;BME280;21655;46.056;13.616;2022-11-18T03:42:14;98637.09;;;11.36;100.00
35551;BME280;21655;46.056;13.616;2022-11-18T03:44:49;98630.06;;;11.34;100.00
35551;BME280;21655;46.056;13.616;2022-11-18T03:47:40;98629.19;;;11.40;100.00
35551;BME280;21655;46.056;13.616;2022-11-18T03:50:25;98621.06;;;11.38;100.00
35551;BME280;21655;46.056;13.616;2022-11-18T03:52:52;98614.44;;;11.39;100.00
35551;BME280;21655;46.056;13.616;2022-11-18T03:55:25;98602.50;;;11.39;100.00
35551;BME280;21655;46.056;13.616;2022-11-18T03:57:56;98606.13;;;11.39;100.00
35551;BME280;21655;46.056;13.616;2022-11-18T04:00:26;98610.97;;;11.44;100.00
35551;BME280;21655;46.056;13.616;2022-11-18T04:02:53;98603.19;;;11.34;100.00
35551;BME280;21655;46.056;13.616;2022-11-18T04:05:19;98599.13;;;11.37;100.00
35551;BME280;21655;46.056;13.616;2022-11-18T04:07:59;98606.50;;;11.43;100.00
35551;BME280;21655;46.056;13.616;2022-11-18T04:10:40;98605.66;;;11.42;100.00
35551;BME280;21655;46.056;13.616;2022-11-18T04:15:41;98576.72;;;11.32;100.00
35551;BME280;21655;46.056;13.616;2022-11-18T04:18:08;98571.97;;;11.39;100.00
35551;BME280;21655;46.056;13.616;2022-11-18T04:20:33;98574.03;;;11.43;100.00
35551;BME280;21655;46.056;13.616;2022-11-18T04:22:59;98580.47;;;11.44;100.00
35551;BME280;21655;46.056;13.616;2022-11-18T04:25:25;98588.16;;;11.42;100.00
35551;BME280;21655;46.056;13.616;2022-11-18T04:27:51;98575.53;;;11.46;100.00
35551;BME280;21655;46.056;13.616;2022-11-18T04:30:17;98570.59;;;11.48;100.00
35551;BME280;21655;46.056;13.616;2022-11-18T04:32:42;98559.28;;;11.49;100.00
35551;BME280;21655;46.056;13.616;2022-11-18T04:35:08;98551.63;;;11.45;100.00
35551;BME280;21655;46.056;13.616;2022-11-18T04:37:33;98540.75;;;11.43;100.00
35551;BME280;21655;46.056;13.616;2022-11-18T04:39:59;98532.06;;;11.40;100.00
35551;BME280;21655;46.056;13.616;2022-11-18T04:42:24;98543.16;;;11.40;100.00
35551;BME280;21655;46.056;13.616;2022-11-18T04:44:50;98544.00;;;11.40;100.00
35551;BME280;21655;46.056;13.616;2022-11-18T04:47:15;98536.53;;;11.41;100.00
35551;BME280;21655;46.056;13.616;2022-11-18T04:49:41;98534.22;;;11.38;100.00
35551;BME280;21655;46.056;13.616;2022-11-18T04:52:06;98533.97;;;11.39;100.00
35551;BME280;21655;46.056;13.616;2022-11-18T04:54:32;98529.97;;;11.35;100.00
35551;BME280;21655;46.056;13.616;2022-11-18T04:56:57;98542.13;;;11.34;100.00
35551;BME280;21655;46.056;13.616;2022-11-18T04:59:25;98545.13;;;11.33;100.00
35551;BME280;21655;46.056;13.616;2022-11-18T05:01:52;98556.84;;;11.35;100.00
35551;BME280;21655;46.056;13.616;2022-11-18T05:04:20;98560.47;;;11.35;100.00
35551;BME280;21655;46.056;13.616;2022-11-18T05:06:46;98561.31;;;11.36;100.00
35551;BME280;21655;46.056;13.616;2022-11-18T05:09:12;98566.44;;;11.39;100.00
35551;BME280;21655;46.056;13.616;2022-11-18T05:11:38;98572.59;;;11.41;100.00
35551;BME280;21655;46.056;13.616;2022-11-18T05:14:28;98573.44;;;11.41;100.00
35551;BME280;21655;46.056;13.616;2022-11-18T05:16:54;98571.72;;;11.40;100.00
35551;BME280;21655;46.056;13.616;2022-11-18T05:19:20;98571.97;;;11.39;100.00
35551;BME280;21655;46.056;13.616;2022-11-18T05:21:46;98574.75;;;11.39;100.00
35551;BME280;21655;46.056;13.616;2022-11-18T05:24:11;98576.44;;;11.40;100.00
35551;BME280;21655;46.056;13.616;2022-11-18T05:26:37;98579.16;;;11.46;100.00
35551;BME280;21655;46.056;13.616;2022-11-18T05:29:02;98594.13;;;11.45;100.00
35551;BME280;21655;46.056;13.616;2022-11-18T05:31:28;98594.78;;;11.41;100.00
35551;BME280;21655;46.056;13.616;2022-11-18T05:33:54;98597.56;;;11.41;100.00
35551;BME280;21655;46.056;13.616;2022-11-18T05:36:20;98592.03;;;11.41;100.00
35551;BME280;21655;46.056;13.616;2022-11-18T05:38:46;98587.16;;;11.36;100.00
35551;BME280;21655;46.056;13.616;2022-11-18T05:41:12;98589.31;;;11.34;100.00
35551;BME280;21655;46.056;13.616;2022-11-18T05:44:01;98595.94;;;11.33;100.00
35551;BME280;21655;46.056;13.616;2022-11-18T05:46:27;98601.94;;;11.30;100.00
35551;BME280;21655;46.056;13.616;2022-11-18T05:48:53;98599.19;;;11.30;100.00
35551;BME280;21655;46.056;13.616;2022-11-18T05:51:18;98594.00;;;11.34;100.00
35551;BME280;21655;46.056;13.616;2022-11-18T05:53:45;98583.50;;;11.36;100.00
35551;BME280;21655;46.056;13.616;2022-11-18T05:58:45;98580.75;;;11.36;100.00
35551;BME280;21655;46.056;13.616;2022-11-18T06:01:11;98589.06;;;11.36;100.00
35551;BME280;21655;46.056;13.616;2022-11-18T06:03:39;98583.50;;;11.36;100.00
35551;BME280;21655;46.056;13.616;2022-11-18T06:06:07;98592.63;;;11.43;100.00
35551;BME280;21655;46.056;13.616;2022-11-18T06:08:38;98597.94;;;11.44;100.00
35551;BME280;21655;46.056;13.616;2022-11-18T06:11:07;98587.25;;;11.48;100.00
35551;BME280;21655;46.056;13.616;2022-11-18T06:13:40;98580.84;;;11.47;100.00
35551;BME280;21655;46.056;13.616;2022-11-18T06:16:06;98584.25;;;11.49;100.00
35551;BME280;21655;46.056;13.616;2022-11-18T06:18:31;98572.47;;;11.54;100.00
35551;BME280;21655;46.056;13.616;2022-11-18T06:21:01;98587.63;;;11.51;100.00
35551;BME280;21655;46.056;13.616;2022-11-18T06:23:29;98588.16;;;11.42;100.00
35551;BME280;21655;46.056;13.616;2022-11-18T06:25:56;98597.78;;;11.39;100.00
35551;BME280;21655;46.056;13.616;2022-11-18T06:28:22;98607.19;;;11.38;100.00
35551;BME280;21655;46.056;13.616;2022-11-18T06:30:48;98617.38;;;11.44;100.00
35551;BME280;21655;46.056;13.616;2022-11-18T06:33:13;98611.59;;;11.46;100.00
35551;BME280;21655;46.056;13.616;2022-11-18T06:35:41;98601.13;;;11.48;100.00
35551;BME280;21655;46.056;13.616;2022-11-18T06:38:07;98593.41;;;11.50;100.00
35551;BME280;21655;46.056;13.616;2022-11-18T06:40:32;98600.91;;;11.49;100.00
35551;BME280;21655;46.056;13.616;2022-11-18T06:43:07;98597.25;;;11.49;100.00
35551;BME280;21655;46.056;13.616;2022-11-18T06:45:51;98596.91;;;11.45;100.00
35551;BME280;21655;46.056;13.616;2022-11-18T06:48:35;98585.31;;;11.48;100.00
35551;BME280;21655;46.056;13.616;2022-11-18T06:51:04;98584.00;;;11.51;100.00
35551;BME280;21655;46.056;13.616;2022-11-18T06:53:29;98585.25;;;11.55;100.00
35551;BME280;21655;46.056;13.616;2022-11-18T06:55:54;98596.78;;;11.52;100.00
35551;BME280;21655;46.056;13.616;2022-11-18T06:58:20;98594.72;;;11.47;100.00
35551;BME280;21655;46.056;13.616;2022-11-18T07:00:45;98595.34;;;11.49;100.00
35551;BME280;21655;46.056;13.616;2022-11-18T07:03:11;98588.72;;;11.50;100.00
35551;BME280;21655;46.056;13.616;2022-11-18T07:05:36;98579.94;;;11.53;100.00
35551;BME280;21655;46.056;13.616;2022-11-18T07:08:01;98592.06;;;11.59;100.00
35551;BME280;21655;46.056;13.616;2022-11-18T07:10:27;98586.53;;;11.59;100.00
35551;BME280;21655;46.056;13.616;2022-11-18T07:12:52;98583.69;;;11.65;100.00
35551;BME280;21655;46.056;13.616;2022-11-18T07:15:18;98585.13;;;11.68;100.00
35551;BME280;21655;46.056;13.616;2022-11-18T07:17:43;98581.28;;;11.69;100.00
35551;BME280;21655;46.056;13.616;2022-11-18T07:20:09;98593.25;;;11.69;100.00
35551;BME280;21655;46.056;13.616;2022-11-18T07:22:34;98585.31;;;11.73;100.00
35551;BME280;21655;46.056;13.616;2022-11-18T07:25:00;98587.63;;;11.76;100.00
35551;BME280;21655;46.056;13.616;2022-11-18T07:27:25;98575.44;;;11.77;100.00
35551;BME280;21655;46.056;13.616;2022-11-18T07:29:50;98580.59;;;11.73;100.00
35551;BME280;21655;46.056;13.616;2022-11-18T07:32:16;98587.16;;;11.79;100.00
35551;BME280;21655;46.056;13.616;2022-11-18T07:34:41;98588.22;;;11.78;100.00
35551;BME280;21655;46.056;13.616;2022-11-18T07:37:07;98601.09;;;11.72;100.00
35551;BME280;21655;46.056;13.616;2022-11-18T07:39:32;98609.03;;;11.69;100.00
35551;BME280;21655;46.056;13.616;2022-11-18T07:41:58;98601.78;;;11.68;100.00
35551;BME280;21655;46.056;13.616;2022-11-18T07:44:23;98614.50;;;11.75;100.00
35551;BME280;21655;46.056;13.616;2022-11-18T07:46:48;98601.97;;;11.73;100.00
35551;BME280;21655;46.056;13.616;2022-11-18T07:49:14;98603.81;;;11.79;100.00
35551;BME280;21655;46.056;13.616;2022-11-18T07:51:40;98610.84;;;11.81;100.00
35551;BME280;21655;46.056;13.616;2022-11-18T07:54:11;98611.84;;;11.87;100.00
35551;BME280;21655;46.056;13.616;2022-11-18T07:56:36;98609.91;;;11.87;100.00
35551;BME280;21655;46.056;13.616;2022-11-18T07:59:02;98614.38;;;11.88;100.00
35551;BME280;21655;46.056;13.616;2022-11-18T08:01:29;98610.03;;;11.92;100.00
35551;BME280;21655;46.056;13.616;2022-11-18T08:03:55;98610.84;;;11.99;100.00
35551;BME280;21655;46.056;13.616;2022-11-18T08:06:21;98612.06;;;12.03;100.00
35551;BME280;21655;46.056;13.616;2022-11-18T08:08:47;98614.97;;;12.08;100.00
35551;BME280;21655;46.056;13.616;2022-11-18T08:11:17;98609.50;;;12.02;100.00
35551;BME280;21655;46.056;13.616;2022-11-18T08:13:43;98606.44;;;12.10;100.00
35551;BME280;21655;46.056;13.616;2022-11-18T08:16:14;98606.19;;;12.11;100.00
35551;BME280;21655;46.056;13.616;2022-11-18T08:18:40;98609.88;;;12.05;100.00
35551;BME280;21655;46.056;13.616;2022-11-18T08:21:06;98606.50;;;12.03;100.00
35551;BME280;21655;46.056;13.616;2022-11-18T08:23:31;98605.66;;;12.03;100.00
35551;BME280;21655;46.056;13.616;2022-11-18T08:26:08;98599.31;;;12.14;100.00
35551;BME280;21655;46.056;13.616;2022-11-18T08:28:34;98608.44;;;12.21;100.00
35551;BME280;21655;46.056;13.616;2022-11-18T08:30:59;98600.00;;;12.27;100.00
35551;BME280;21655;46.056;13.616;2022-11-18T08:33:25;98595.81;;;12.36;100.00
35551;BME280;21655;46.056;13.616;2022-11-18T08:35:50;98593.31;;;12.46;100.00
35551;BME280;21655;46.056;13.616;2022-11-18T08:38:17;98593.28;;;12.64;100.00
35551;BME280;21655;46.056;13.616;2022-11-18T08:40:45;98582.97;;;12.65;100.00
35551;BME280;21655;46.056;13.616;2022-11-18T08:43:12;98586.56;;;12.83;100.00
35551;BME280;21655;46.056;13.616;2022-11-18T08:45:38;98589.88;;;13.03;100.00
35551;BME280;21655;46.056;13.616;2022-11-18T08:48:04;98595.13;;;13.22;100.00
35551;BME280;21655;46.056;13.616;2022-11-18T08:50:30;98592.97;;;13.47;100.00
35551;BME280;21655;46.056;13.616;2022-11-18T08:52:55;98592.47;;;13.85;100.00
35551;BME280;21655;46.056;13.616;2022-11-18T08:55:20;98591.34;;;13.97;100.00
35551;BME280;21655;46.056;13.616;2022-11-18T08:57:46;98584.78;;;14.15;100.00
35551;BME280;21655;46.056;13.616;2022-11-18T09:00:12;98593.63;;;14.12;100.00
35551;BME280;21655;46.056;13.616;2022-11-18T09:02:38;98593.97;;;14.15;100.00
35551;BME280;21655;46.056;13.616;2022-11-18T09:05:04;98590.84;;;14.12;100.00
35551;BME280;21655;46.056;13.616;2022-11-18T09:07:29;98592.91;;;14.05;100.00
35551;BME280;21655;46.056;13.616;2022-11-18T09:09:55;98591.00;;;13.94;100.00
35551;BME280;21655;46.056;13.616;2022-11-18T09:12:20;98599.84;;;13.79;100.00
35551;BME280;21655;46.056;13.616;2022-11-18T09:14:46;98594.53;;;13.78;100.00
35551;BME280;21655;46.056;13.616;2022-11-18T09:17:12;98604.34;;;13.69;100.00
35551;BME280;21655;46.056;13.616;2022-11-18T09:19:38;98603.97;;;13.54;100.00
35551;BME280;21655;46.056;13.616;2022-11-18T09:22:04;98610.41;;;13.43;100.00
35551;BME280;21655;46.056;13.616;2022-11-18T09:24:30;98602.88;;;13.32;100.00
35551;BME280;21655;46.056;13.616;2022-11-18T09:26:55;98604.69;;;13.15;100.00
35551;BME280;21655;46.056;13.616;2022-11-18T09:29:21;98608.66;;;13.19;100.00
35551;BME280;21655;46.056;13.616;2022-11-18T09:31:53;98602.50;;;13.17;100.00
35551;BME280;21655;46.056;13.616;2022-11-18T09:34:18;98608.44;;;13.32;100.00
35551;BME280;21655;46.056;13.616;2022-11-18T09:36:44;98610.88;;;13.40;100.00
35551;BME280;21655;46.056;13.616;2022-11-18T09:39:10;98615.50;;;13.46;100.00
35551;BME280;21655;46.056;13.616;2022-11-18T09:46:53;98622.25;;;13.61;100.00
35551;BME280;21655;46.056;13.616;2022-11-18T09:49:28;98631.34;;;13.57;100.00
35551;BME280;21655;46.056;13.616;2022-11-18T09:51:55;98633.28;;;13.56;100.00
35551;BME280;21655;46.056;13.616;2022-11-18T09:54:23;98624.34;;;13.54;100.00
35551;BME280;21655;46.056;13.616;2022-11-18T09:56:51;98622.16;;;13.56;100.00
35551;BME280;21655;46.056;13.616;2022-11-18T09:59:19;98632.53;;;13.49;100.00
35551;BME280;21655;46.056;13.616;2022-11-18T10:01:45;98632.19;;;13.34;100.00
35551;BME280;21655;46.056;13.616;2022-11-18T10:04:18;98627.94;;;13.20;100.00
35551;BME280;21655;46.056;13.616;2022-11-18T10:06:44;98622.31;;;13.09;100.00
35551;BME280;21655;46.056;13.616;2022-11-18T10:17:17;98626.19;;;13.08;100.00
35551;BME280;21655;46.056;13.616;2022-11-18T10:20:20;98631.16;;;13.17;100.00
35551;BME280;21655;46.056;13.616;2022-11-18T10:25:31;98631.75;;;13.08;100.00
35551;BME280;21655;46.056;13.616;2022-11-18T10:28:05;98627.16;;;13.13;100.00
35551;BME280;21655;46.056;13.616;2022-11-18T10:30:37;98627.03;;;13.09;100.00
35551;BME280;21655;46.056;13.616;2022-11-18T10:35:48;98627.25;;;12.96;100.00
35551;BME280;21655;46.056;13.616;2022-11-18T10:40:45;98633.47;;;12.91;100.00
35551;BME280;21655;46.056;13.616;2022-11-18T10:46:29;98635.66;;;12.89;100.00
35551;BME280;21655;46.056;13.616;2022-11-18T10:51:37;98630.19;;;12.83;100.00
35551;BME280;21655;46.056;13.616;2022-11-18T10:54:08;98631.25;;;13.00;100.00
35551;BME280;21655;46.056;13.616;2022-11-18T10:56:44;98625.00;;;13.15;100.00
35551;BME280;21655;46.056;13.616;2022-11-18T11:05:19;98618.63;;;13.49;100.00
35551;BME280;21655;46.056;13.616;2022-11-18T11:10:25;98640.31;;;13.70;100.00
35551;BME280;21655;46.056;13.616;2022-11-18T11:13:00;98632.78;;;13.82;100.00
35551;BME280;21655;46.056;13.616;2022-11-18T11:15:38;98636.28;;;13.66;100.00
35551;BME280;21655;46.056;13.616;2022-11-18T11:18:11;98643.81;;;13.54;100.00
35551;BME280;21655;46.056;13.616;2022-11-18T11:20:57;98649.38;;;13.43;100.00
35551;BME280;21655;46.056;13.616;2022-11-18T11:23:24;98644.75;;;13.25;100.00
35551;BME280;21655;46.056;13.616;2022-11-18T11:25:59;98648.13;;;13.27;100.00
35551;BME280;21655;46.056;13.616;2022-11-18T11:36:34;98658.25;;;13.11;100.00
35551;BME280;21655;46.056;13.616;2022-11-18T11:44:31;98665.66;;;12.87;100.00
35551;BME280;21655;46.056;13.616;2022-11-18T11:47:19;98670.00;;;12.83;100.00
35551;BME280;21655;46.056;13.616;2022-11-18T11:50:15;98675.16;;;12.80;100.00
35551;BME280;21655;46.056;13.616;2022-11-18T12:00:59;98700.06;;;12.93;100.00
35551;BME280;21655;46.056;13.616;2022-11-18T12:06:08;98680.91;;;13.14;100.00
35551;BME280;21655;46.056;13.616;2022-11-18T12:08:35;98679.13;;;13.31;100.00
35551;BME280;21655;46.056;13.616;2022-11-18T12:19:05;98672.16;;;13.97;100.00
35551;BME280;21655;46.056;13.616;2022-11-18T12:26:49;98702.69;;;13.81;100.00
35551;BME280;21655;46.056;13.616;2022-11-18T12:31:44;98719.34;;;13.58;100.00
35551;BME280;21655;46.056;13.616;2022-11-18T12:34:36;98728.91;;;13.50;100.00
35551;BME280;21655;46.056;13.616;2022-11-18T12:39:58;98731.59;;;13.16;100.00
35551;BME280;21655;46.056;13.616;2022-11-18T12:42:45;98739.19;;;13.09;100.00
35551;BME280;21655;46.056;13.616;2022-11-18T12:48:28;98770.53;;;12.87;100.00
35551;BME280;21655;46.056;13.616;2022-11-18T12:50:55;98771.75;;;12.73;100.00
35551;BME280;21655;46.056;13.616;2022-11-18T12:55:56;98767.03;;;12.73;100.00
35551;BME280;21655;46.056;13.616;2022-11-18T12:58:24;98771.59;;;12.68;100.00
35551;BME280;21655;46.056;13.616;2022-11-18T13:00:49;98772.91;;;12.65;100.00
35551;BME280;21655;46.056;13.616;2022-11-18T13:03:23;98772.59;;;12.55;100.00
35551;BME280;21655;46.056;13.616;2022-11-18T13:05:55;98763.97;;;12.63;100.00
35551;BME280;21655;46.056;13.616;2022-11-18T13:08:22;98750.44;;;12.67;100.00
35551;BME280;21655;46.056;13.616;2022-11-18T13:10:50;98725.72;;;12.77;100.00
35551;BME280;21655;46.056;13.616;2022-11-18T13:13:29;98706.03;;;12.78;100.00
35551;BME280;21655;46.056;13.616;2022-11-18T13:16:01;98690.41;;;12.77;100.00
35551;BME280;21655;46.056;13.616;2022-11-18T13:18:52;98670.72;;;12.90;100.00
35551;BME280;21655;46.056;13.616;2022-11-18T13:21:23;98665.53;;;13.12;100.00
35551;BME280;21655;46.056;13.616;2022-11-18T13:24:11;98681.19;;;13.35;100.00
35551;BME280;21655;46.056;13.616;2022-11-18T13:26:39;98687.59;;;15.29;100.00
35551;BME280;21655;46.056;13.616;2022-11-18T13:34:44;98654.16;;;21.19;100.00
35551;BME280;21655;46.056;13.616;2022-11-18T13:37:16;98643.34;;;21.79;100.00
35551;BME280;21655;46.056;13.616;2022-11-18T13:39:44;98651.78;;;22.18;100.00
35551;BME280;21655;46.056;13.616;2022-11-18T13:44:51;98638.50;;;20.83;100.00
35551;BME280;21655;46.056;13.616;2022-11-18T13:55:47;98655.53;;;16.79;100.00
35551;BME280;21655;46.056;13.616;2022-11-18T14:00:53;98680.50;;;15.55;100.00
35551;BME280;21655;46.056;13.616;2022-11-18T14:03:23;98683.06;;;15.73;100.00
35551;BME280;21655;46.056;13.616;2022-11-18T14:05:53;98698.81;;;15.62;100.00
35551;BME280;21655;46.056;13.616;2022-11-18T14:08:33;98709.47;;;15.98;100.00
35551;BME280;21655;46.056;13.616;2022-11-18T14:10:59;98707.75;;;16.68;100.00
35551;BME280;21655;46.056;13.616;2022-11-18T14:13:26;98704.38;;;17.88;100.00
35551;BME280;21655;46.056;13.616;2022-11-18T14:16:00;98716.19;;;18.63;100.00
35551;BME280;21655;46.056;13.616;2022-11-18T14:18:33;98718.41;;;19.17;100.00
35551;BME280;21655;46.056;13.616;2022-11-18T14:21:00;98724.94;;;19.28;100.00
35551;BME280;21655;46.056;13.616;2022-11-18T14:23:30;98725.09;;;19.98;100.00
35551;BME280;21655;46.056;13.616;2022-11-18T14:25:58;98740.03;;;20.03;100.00
35551;BME280;21655;46.056;13.616;2022-11-18T14:28:26;98744.16;;;19.66;100.00
35551;BME280;21655;46.056;13.616;2022-11-18T14:31:05;98753.47;;;20.01;100.00
35551;BME280;21655;46.056;13.616;2022-11-18T14:33:36;98760.19;;;19.65;100.00
35551;BME280;21655;46.056;13.616;2022-11-18T14:38:43;98769.75;;;18.98;100.00
35551;BME280;21655;46.056;13.616;2022-11-18T14:41:11;98770.59;;;18.57;100.00
35551;BME280;21655;46.056;13.616;2022-11-18T14:43:37;98763.81;;;18.48;100.00
35551;BME280;21655;46.056;13.616;2022-11-18T14:46:05;98760.63;;;16.86;100.00
35551;BME280;21655;46.056;13.616;2022-11-18T14:48:31;98770.13;;;16.47;100.00
35551;BME280;21655;46.056;13.616;2022-11-18T14:50:58;98769.38;;;16.02;100.00
35551;BME280;21655;46.056;13.616;2022-11-18T14:53:23;98772.97;;;15.14;100.00
35551;BME280;21655;46.056;13.616;2022-11-18T14:55:51;98776.53;;;14.24;100.00
35551;BME280;21655;46.056;13.616;2022-11-18T14:58:18;98787.19;;;13.63;100.00
35551;BME280;21655;46.056;13.616;2022-11-18T15:00:46;98799.88;;;13.01;100.00
35551;BME280;21655;46.056;13.616;2022-11-18T15:03:11;98818.84;;;12.68;100.00
35551;BME280;21655;46.056;13.616;2022-11-18T15:05:37;98814.91;;;12.39;100.00
35551;BME280;21655;46.056;13.616;2022-11-18T15:08:03;98818.84;;;12.07;100.00